Time;durP1;ratioP1;P1;durP2;ratioP2;P2;SDS_P1;SDS_P2;PMS_P1;PMS_P2;Temp;Humidity;BMP_temperature;BMP_pressure;BME280_temperature;BME280_humidity;BME280_pressure;Samples;Min_cycle;Max_cycle;Signal;HPM_P1;HPM_P2
2022/09/07 00:01:33;;;;;;;8.88;1.50;;;22.60;97.10;;;-147.18;100.00;67318.16;5059289;28;20118;-85
2022/09/07 00:04:58;;;;;;;4.28;1.40;;;22.60;97.30;;;-147.18;100.00;67318.16;5086986;28;20076;-85
2022/09/07 00:08:25;;;;;;;7.40;1.95;;;22.50;97.90;;;-147.18;100.00;67318.16;5070508;28;20037;-85
2022/09/07 00:11:53;;;;;;;7.13;1.15;;;22.30;98.90;;;-147.18;100.00;67318.16;5059464;28;20355;-84
2022/09/07 00:15:19;;;;;;;5.93;1.52;;;22.30;99.40;;;-147.18;100.00;67318.16;5050746;28;20068;-85
2022/09/07 00:18:46;;;;;;;4.88;1.40;;;22.20;99.90;;;-147.18;100.00;67318.16;5062032;28;20497;-84
2022/09/07 00:22:13;;;;;;;3.63;1.40;;;22.10;99.90;;;-147.18;100.00;67318.16;5061588;28;20060;-84
2022/09/07 00:25:40;;;;;;;5.45;1.70;;;22.00;99.90;;;-147.18;100.00;67318.16;5070510;28;20492;-85
2022/09/07 00:29:06;;;;;;;6.35;1.48;;;22.00;99.90;;;-147.18;100.00;67318.16;5084042;28;20079;-85
2022/09/07 00:32:32;;;;;;;6.80;1.58;;;21.90;99.90;;;-147.18;100.00;67318.16;5055163;28;20127;-84
2022/09/07 00:35:59;;;;;;;5.40;1.60;;;21.80;99.90;;;-147.18;100.00;67318.16;5069869;28;20041;-85
2022/09/07 00:39:25;;;;;;;4.88;1.65;;;21.70;99.90;;;-147.18;100.00;67318.16;5060778;28;20064;-84
2022/09/07 00:42:51;;;;;;;3.75;1.48;;;21.60;99.90;;;-147.18;100.00;67318.16;5062155;28;20524;-84
2022/09/07 00:46:19;;;;;;;5.90;1.88;;;21.60;99.90;;;-147.18;100.00;67318.16;5061657;28;20069;-84
2022/09/07 00:49:51;;;;;;;5.07;1.83;;;21.50;99.90;;;-147.18;100.00;67318.16;5050728;28;20561;-84
2022/09/07 00:53:21;;;;;;;8.23;1.80;;;21.50;99.90;;;-147.18;100.00;67318.16;5050876;28;20132;-84
2022/09/07 00:56:52;;;;;;;8.05;1.65;;;21.40;99.90;;;-147.18;100.00;67318.16;5058816;28;20509;-84
2022/09/07 01:00:27;;;;;;;8.77;1.80;;;21.40;99.90;;;-147.18;100.00;67318.16;5071022;28;20131;-84
2022/09/07 01:03:57;;;;;;;6.53;1.65;;;21.30;99.90;;;-147.18;100.00;67318.16;5070656;28;20838;-84
2022/09/07 01:07:27;;;;;;;5.18;1.50;;;21.30;99.90;;;-147.18;100.00;67318.16;5060232;28;20501;-84
2022/09/07 01:10:54;;;;;;;6.93;1.60;;;21.20;99.90;;;-147.18;100.00;67318.16;5059064;28;20114;-84
2022/09/07 01:14:28;;;;;;;9.18;1.90;;;21.10;99.90;;;-147.18;100.00;67318.16;5067639;28;20040;-84
2022/09/07 01:18:08;;;;;;;8.93;1.92;;;21.10;99.90;;;-147.18;100.00;67318.16;5065492;28;20125;-85
2022/09/07 01:21:58;;;;;;;5.57;1.55;;;21.10;99.90;;;-147.18;100.00;67318.16;5050050;28;20032;-85
2022/09/07 01:26:00;;;;;;;7.07;1.70;;;21.10;99.90;;;-147.18;100.00;67318.16;5059558;28;20048;-85
2022/09/07 01:29:30;;;;;;;6.40;1.70;;;21.10;99.90;;;-147.18;100.00;67318.16;5053138;28;20466;-84
2022/09/07 01:33:12;;;;;;;7.90;1.90;;;21.10;99.90;;;-147.18;100.00;67318.16;5061311;28;20041;-84
2022/09/07 01:36:47;;;;;;;6.00;1.73;;;21.10;99.90;;;-147.18;100.00;67318.16;5058887;28;20485;-84
2022/09/07 01:40:15;;;;;;;4.75;1.30;;;21.00;99.90;;;-147.18;100.00;67318.16;5068770;28;20040;-84
2022/09/07 01:43:50;;;;;;;3.45;1.05;;;21.00;99.90;;;-147.18;100.00;67318.16;5057988;28;20083;-85
2022/09/07 01:47:21;;;;;;;3.95;1.13;;;21.00;99.90;;;-147.18;100.00;67318.16;5053760;28;20036;-84
2022/09/07 01:50:52;;;;;;;5.20;1.17;;;21.00;99.90;;;-147.18;100.00;67318.16;5068663;28;20061;-84
2022/09/07 01:54:24;;;;;;;4.70;1.30;;;21.00;99.90;;;-147.18;100.00;67318.16;5057967;28;20044;-84
2022/09/07 01:57:55;;;;;;;6.70;1.83;;;21.00;99.90;;;-147.18;100.00;67318.16;5049468;28;20045;-85
2022/09/07 02:01:25;;;;;;;2.92;1.20;;;21.00;99.90;;;-147.18;100.00;67318.16;5054194;28;20065;-84
2022/09/07 02:05:00;;;;;;;4.22;1.35;;;21.00;99.90;;;-147.18;100.00;67318.16;5062791;28;20064;-84
2022/09/07 02:08:34;;;;;;;3.90;1.50;;;21.00;99.90;;;-147.18;100.00;67318.16;5069101;28;20094;-84
2022/09/07 02:12:07;;;;;;;4.53;1.40;;;21.00;99.90;;;-147.18;100.00;67318.16;5060548;28;20071;-84
2022/09/07 02:15:42;;;;;;;3.58;1.30;;;21.00;99.90;;;-147.18;100.00;67318.16;5066104;28;20546;-84
2022/09/07 02:19:11;;;;;;;4.07;1.70;;;21.00;99.90;;;-147.18;100.00;67318.16;5066627;28;20059;-84
2022/09/07 02:22:43;;;;;;;6.80;1.48;;;20.90;99.90;;;-147.18;100.00;67318.16;5049378;28;20041;-84
2022/09/07 02:26:11;;;;;;;;;;;21.00;99.90;;;-147.18;100.00;67318.16;5056623;28;20094;-84
2022/09/07 02:29:38;;;;;;;4.63;1.23;;;20.90;99.90;;;-147.18;100.00;67318.16;5050668;28;19966;-84
2022/09/07 02:33:05;;;;;;;4.10;1.00;;;20.90;99.90;;;-147.18;100.00;67318.16;5049303;28;20493;-84
2022/09/07 02:36:34;;;;;;;2.13;0.80;;;20.90;99.90;;;-147.18;100.00;67318.16;5067992;28;20072;-84
2022/09/07 02:40:00;;;;;;;3.70;1.00;;;20.80;99.90;;;-147.18;100.00;67318.16;5057406;28;20045;-84
2022/09/07 02:43:28;;;;;;;3.17;1.20;;;20.80;99.90;;;-147.18;100.00;67318.16;5049238;28;20063;-84
2022/09/07 02:47:26;;;;;;;3.58;1.00;;;20.80;99.90;;;-147.18;100.00;67318.16;5052515;28;20625;-84
2022/09/07 02:51:17;;;;;;;2.85;1.08;;;20.80;99.90;;;-147.18;100.00;67318.16;5057246;28;20045;-85
2022/09/07 02:55:01;;;;;;;2.55;1.02;;;20.80;99.90;;;-147.18;100.00;67318.16;5068567;28;20040;-85
2022/09/07 02:58:42;;;;;;;5.00;1.15;;;20.70;99.90;;;-147.18;100.00;67318.16;5060572;28;20073;-84
2022/09/07 03:02:27;;;;;;;2.70;1.15;;;20.80;99.90;;;-147.18;100.00;67318.16;5069042;28;20458;-84
2022/09/07 03:06:04;;;;;;;4.15;1.00;;;20.70;99.90;;;-147.18;100.00;67318.16;5049373;28;20049;-85
2022/09/07 03:09:36;;;;;;;3.75;0.95;;;20.70;99.90;;;-147.18;100.00;67318.16;5057122;28;20053;-84
2022/09/07 03:13:03;;;;;;;2.20;0.95;;;20.70;99.90;;;-147.18;100.00;67318.16;5067028;28;20033;-85
2022/09/07 03:16:29;;;;;;;3.75;1.00;;;20.60;99.90;;;-147.18;100.00;67318.16;5056972;28;20263;-84
2022/09/07 03:19:56;;;;;;;5.60;1.30;;;20.60;99.90;;;-147.18;100.00;67318.16;5068843;28;20420;-84
2022/09/07 03:23:21;;;;;;;3.20;0.85;;;20.60;99.90;;;-147.18;100.00;67318.16;5066806;28;20121;-85
2022/09/07 03:26:49;;;;;;;2.95;0.98;;;20.60;99.90;;;-147.18;100.00;67318.16;5070558;28;20064;-85
2022/09/07 03:30:15;;;;;;;3.65;1.00;;;20.50;99.90;;;-147.18;100.00;67318.16;5071993;28;20041;-84
2022/09/07 03:33:41;;;;;;;2.00;0.80;;;20.50;99.90;;;-147.18;100.00;67318.16;5058502;28;20041;-85
2022/09/07 03:37:08;;;;;;;1.60;0.80;;;20.40;99.90;;;-147.18;100.00;67318.16;5051241;28;20489;-84
2022/09/07 03:40:34;;;;;;;4.13;1.10;;;20.40;99.90;;;-147.18;100.00;67318.16;5070642;28;20661;-84
2022/09/07 03:44:02;;;;;;;5.72;1.38;;;20.40;99.90;;;-147.18;100.00;67318.16;5106227;28;20568;-78
2022/09/07 03:47:28;;;;;;;2.67;1.05;;;20.40;99.90;;;-147.18;100.00;67318.16;5111228;28;20112;-78
2022/09/07 03:50:57;;;;;;;1.95;0.90;;;20.30;99.90;;;-147.18;100.00;67318.16;5103569;28;20499;-78
2022/09/07 03:54:25;;;;;;;4.72;1.20;;;20.30;99.90;;;-147.18;100.00;67318.16;5072320;28;20086;-78
2022/09/07 03:57:50;;;;;;;2.20;1.13;;;20.30;99.90;;;-147.18;100.00;67318.16;5090763;28;20747;-78
2022/09/07 04:01:17;;;;;;;2.63;0.98;;;20.30;99.90;;;-147.18;100.00;67318.16;5082417;28;20032;-78
2022/09/07 04:04:44;;;;;;;2.00;0.90;;;20.20;99.90;;;-147.18;100.00;67318.16;5080372;28;20040;-78
2022/09/07 04:08:10;;;;;;;3.30;1.08;;;20.10;99.90;;;-147.18;100.00;67318.16;5072466;28;20131;-78
2022/09/07 04:11:39;;;;;;;3.47;1.00;;;20.10;99.90;;;-147.18;100.00;67318.16;5073877;28;20045;-77
2022/09/07 04:15:05;;;;;;;3.25;1.20;;;20.10;99.90;;;-147.18;100.00;67318.16;5086874;28;20087;-77
2022/09/07 04:18:31;;;;;;;2.40;1.10;;;20.10;99.90;;;-147.18;100.00;67318.16;5073975;28;20436;-78
2022/09/07 04:21:57;;;;;;;5.20;1.13;;;20.00;99.90;;;-147.18;100.00;67318.16;5079307;28;20137;-79
2022/09/07 04:25:23;;;;;;;3.45;1.25;;;20.00;99.90;;;-147.18;100.00;67318.16;5083270;28;20090;-77
2022/09/07 04:28:51;;;;;;;3.38;1.40;;;19.90;99.90;;;-147.18;100.00;67318.16;5071317;28;20068;-76
2022/09/07 04:32:17;;;;;;;2.90;1.30;;;20.00;99.90;;;-147.18;100.00;67318.16;5080233;28;20036;-77
2022/09/07 04:35:43;;;;;;;3.88;1.50;;;19.90;99.90;;;-147.18;100.00;67318.16;5082861;28;20102;-77
2022/09/07 04:39:12;;;;;;;2.95;1.52;;;19.90;99.90;;;-147.18;100.00;67318.16;5079290;28;20063;-77
2022/09/07 04:42:38;;;;;;;3.78;1.75;;;19.90;99.90;;;-147.18;100.00;67318.16;5074999;28;20086;-76
2022/09/07 04:46:08;;;;;;;3.10;1.45;;;19.90;99.90;;;-147.18;100.00;67318.16;5071779;28;20044;-76
2022/09/07 04:49:34;;;;;;;4.47;1.88;;;19.80;99.90;;;-147.18;100.00;67318.16;5081641;28;20447;-77
2022/09/07 04:52:59;;;;;;;3.95;1.77;;;19.80;99.90;;;-147.18;100.00;67318.16;5077124;28;20545;-78
2022/09/07 04:56:25;;;;;;;4.30;1.80;;;19.70;99.90;;;-147.18;100.00;67318.16;5095961;28;20097;-78
2022/09/07 04:59:51;;;;;;;4.57;2.00;;;19.70;99.90;;;-147.18;100.00;67318.16;5079270;28;20071;-81
2022/09/07 05:03:18;;;;;;;3.72;1.88;;;19.70;99.90;;;-147.18;100.00;67318.16;5074403;28;20036;-81
2022/09/07 05:06:44;;;;;;;3.95;2.00;;;19.70;99.90;;;-147.18;100.00;67318.16;5069375;28;20078;-80
2022/09/07 05:10:10;;;;;;;9.25;2.65;;;19.70;99.90;;;-147.18;100.00;67318.16;5085092;28;20072;-80
2022/09/07 05:13:36;;;;;;;6.75;2.40;;;19.70;99.90;;;-147.18;100.00;67318.16;5081452;28;20446;-80
2022/09/07 05:17:06;;;;;;;4.85;2.13;;;19.70;99.90;;;-147.18;100.00;67318.16;5080869;28;20504;-80
2022/09/07 05:20:33;;;;;;;6.93;2.50;;;19.70;99.90;;;-147.18;100.00;67318.16;5090266;28;20140;-80
2022/09/07 05:24:00;;;;;;;7.85;2.38;;;19.70;99.90;;;-147.18;100.00;67318.16;5080184;28;20040;-80
2022/09/07 05:27:27;;;;;;;7.35;3.03;;;19.70;99.90;;;-147.18;100.00;67318.16;5069240;28;20040;-77
2022/09/07 05:30:53;;;;;;;6.07;2.78;;;19.70;99.90;;;-147.18;100.00;67318.16;5076362;28;20113;-78
2022/09/07 05:34:19;;;;;;;5.88;3.60;;;19.70;99.90;;;-147.18;100.00;67318.16;5090097;28;20040;-78
2022/09/07 05:37:49;;;;;;;10.63;4.32;;;19.70;99.90;;;-147.18;100.00;67318.16;5089001;28;20131;-78
2022/09/07 05:41:16;;;;;;;6.90;4.43;;;19.70;99.90;;;-147.18;100.00;67318.16;5077950;28;20048;-78
2022/09/07 05:44:42;;;;;;;7.47;4.82;;;19.70;99.90;;;-147.18;100.00;67318.16;5086385;28;20393;-78
2022/09/07 05:48:08;;;;;;;8.98;4.45;;;19.70;99.90;;;-147.18;100.00;67318.16;5072679;28;20134;-78
2022/09/07 05:51:35;;;;;;;11.25;5.32;;;19.70;99.90;;;-147.18;100.00;67318.16;5069737;28;20072;-78
2022/09/07 05:55:03;;;;;;;9.43;5.50;;;19.80;99.90;;;-147.18;100.00;67318.16;5069707;28;20525;-78
2022/09/07 05:58:29;;;;;;;13.07;5.97;;;19.80;99.90;;;-147.18;100.00;67318.16;5078641;28;20097;-78
2022/09/07 06:01:57;;;;;;;9.90;5.32;;;19.80;99.90;;;-147.18;100.00;67318.16;5089719;28;20089;-78
2022/09/07 06:05:22;;;;;;;10.27;5.68;;;19.80;99.90;;;-147.18;100.00;67318.16;5089169;28;20072;-78
2022/09/07 06:08:49;;;;;;;15.27;5.70;;;19.90;99.90;;;-147.18;100.00;67318.16;5069553;28;20585;-78
2022/09/07 06:12:18;;;;;;;7.97;5.15;;;19.90;99.90;;;-147.18;100.00;67318.16;5067961;28;20413;-78
2022/09/07 06:15:44;;;;;;;9.32;5.57;;;19.90;99.90;;;-147.18;100.00;67318.16;5068772;28;20036;-78
2022/09/07 06:19:09;;;;;;;10.55;5.82;;;19.90;99.90;;;-147.18;100.00;67318.16;5079958;28;20068;-78
2022/09/07 06:22:36;;;;;;;7.85;5.38;;;19.90;99.90;;;-147.18;100.00;67318.16;5089589;28;20497;-78
2022/09/07 06:26:03;;;;;;;9.40;5.72;;;19.90;99.90;;;-147.18;100.00;67318.16;5069737;28;20064;-78
2022/09/07 06:29:32;;;;;;;9.57;5.53;;;19.80;99.90;;;-147.18;100.00;67318.16;5080410;28;20048;-78
2022/09/07 06:32:57;;;;;;;9.73;5.75;;;19.90;99.90;;;-147.18;100.00;67318.16;5087976;28;20082;-78
2022/09/07 06:36:26;;;;;;;8.70;5.53;;;19.90;99.90;;;-147.18;100.00;67318.16;5068358;28;20073;-78
2022/09/07 06:39:52;;;;;;;7.93;5.32;;;20.00;99.90;;;-147.18;100.00;67318.16;5069082;28;20131;-78
2022/09/07 06:43:17;;;;;;;9.55;5.95;;;20.00;99.90;;;-147.18;100.00;67318.16;5072061;28;20115;-78
2022/09/07 06:46:50;;;;;;;8.77;5.70;;;20.10;99.90;;;-147.18;100.00;67318.16;5083654;28;20134;-78
2022/09/07 06:50:16;;;;;;;8.88;5.43;;;20.20;99.90;;;-147.18;100.00;67318.16;5080047;28;20043;-78
2022/09/07 06:53:42;;;;;;;7.90;5.03;;;20.30;99.90;;;-147.18;100.00;67318.16;5075067;28;20044;-78
2022/09/07 06:57:10;;;;;;;8.30;5.55;;;20.30;99.90;;;-147.18;100.00;67318.16;5085736;28;20045;-78
2022/09/07 07:00:36;;;;;;;9.13;5.20;;;20.40;99.90;;;-147.18;100.00;67318.16;5073647;28;20060;-78
2022/09/07 07:04:04;;;;;;;8.73;5.18;;;20.50;99.90;;;-147.18;100.00;67318.16;5085854;28;20108;-78
2022/09/07 07:07:33;;;;;;;9.77;5.55;;;20.50;99.90;;;-147.18;100.00;67318.16;5076966;28;20101;-78
2022/09/07 07:11:00;;;;;;;12.43;6.68;;;20.60;99.90;;;-147.18;100.00;67318.16;5082988;28;20040;-78
2022/09/07 07:14:26;;;;;;;13.63;5.85;;;20.60;99.90;;;-147.18;100.00;67318.16;5076868;28;20094;-78
2022/09/07 07:17:52;;;;;;;11.27;5.90;;;20.70;99.90;;;-147.18;100.00;67318.16;5075525;28;20060;-78
2022/09/07 07:21:19;;;;;;;8.32;5.18;;;20.70;99.90;;;-147.18;100.00;67318.16;5086603;28;20064;-78
2022/09/07 07:24:48;;;;;;;11.50;5.13;;;20.80;99.90;;;-147.18;100.00;67318.16;5082777;28;20459;-78
2022/09/07 07:28:14;;;;;;;9.52;5.30;;;20.90;99.90;;;-147.18;100.00;67318.16;5085123;28;20063;-78
2022/09/07 07:31:40;;;;;;;11.55;5.05;;;21.00;99.90;;;-147.18;100.00;67318.16;5088192;28;20040;-78
2022/09/07 07:35:07;;;;;;;9.68;4.88;;;21.00;99.90;;;-147.18;100.00;67318.16;5080990;28;20086;-78
2022/09/07 07:38:34;;;;;;;9.85;5.03;;;21.00;99.90;;;-147.18;100.00;67318.16;5077987;28;20040;-78
2022/09/07 07:42:00;;;;;;;7.20;4.03;;;21.20;99.90;;;-147.18;100.00;67318.16;5082685;28;20097;-78
2022/09/07 07:45:26;;;;;;;7.55;4.43;;;21.20;99.90;;;-147.18;100.00;67318.16;5078756;28;20046;-78
2022/09/07 07:48:52;;;;;;;7.80;3.95;;;21.20;99.90;;;-147.18;100.00;67318.16;5081324;28;20071;-78
2022/09/07 07:52:18;;;;;;;7.75;3.88;;;21.30;99.90;;;-147.18;100.00;67318.16;5082503;28;20464;-78
2022/09/07 07:55:46;;;;;;;4.95;3.65;;;21.40;99.90;;;-147.18;100.00;67318.16;5089690;28;20075;-78
2022/09/07 07:59:12;;;;;;;7.32;4.40;;;21.40;99.90;;;-147.18;100.00;67318.16;5080479;28;20493;-77
2022/09/07 08:02:38;;;;;;;8.25;4.30;;;21.50;99.90;;;-147.18;100.00;67318.16;5089605;28;20042;-78
2022/09/07 08:06:06;;;;;;;9.25;4.68;;;21.50;99.90;;;-147.18;100.00;67318.16;5099401;28;20474;-78
2022/09/07 08:09:33;;;;;;;9.63;5.60;;;21.60;99.90;;;-147.18;100.00;67318.16;5085720;28;20514;-78
2022/09/07 08:13:00;;;;;;;14.73;6.82;;;21.60;99.90;;;-147.18;100.00;67318.16;5071296;28;20512;-78
2022/09/07 08:16:26;;;;;;;7.50;5.75;;;21.70;99.90;;;-147.18;100.00;67318.16;5089058;28;20089;-80
2022/09/07 08:19:54;;;;;;;10.48;6.22;;;21.70;99.90;;;-147.18;100.00;67318.16;5082331;28;20055;-78
2022/09/07 08:23:20;;;;;;;13.40;7.03;;;21.70;99.90;;;-147.18;100.00;67318.16;5086116;28;20036;-78
2022/09/07 08:26:49;;;;;;;12.57;6.70;;;21.70;99.90;;;-147.18;100.00;67318.16;5077157;28;20378;-77
2022/09/07 08:30:16;;;;;;;9.82;7.32;;;21.70;99.90;;;-147.18;100.00;67318.16;5086978;28;20041;-76
2022/09/07 08:33:42;;;;;;;14.88;8.63;;;21.60;99.90;;;-147.18;100.00;67318.16;5083358;28;20042;-77
2022/09/07 08:37:11;;;;;;;13.05;8.55;;;21.60;99.90;;;-147.18;100.00;67318.16;5077230;28;20036;-77
2022/09/07 08:40:37;;;;;;;14.02;9.25;;;21.60;99.90;;;-147.18;100.00;67318.16;5079705;28;20123;-77
2022/09/07 08:44:13;;;;;;;16.02;9.15;;;21.60;99.90;;;-147.18;100.00;67318.16;5079522;28;20062;-77
2022/09/07 08:47:46;;;;;;;14.27;9.18;;;21.70;99.90;;;-147.18;100.00;67318.16;5071996;28;20062;-77
2022/09/07 08:51:18;;;;;;;13.48;9.80;;;21.70;99.90;;;-147.18;100.00;67318.16;5072932;28;20040;-77
2022/09/07 08:54:49;;;;;;;14.30;10.32;;;21.70;99.90;;;-147.18;100.00;67318.16;5083660;28;20132;-77
2022/09/07 08:58:22;;;;;;;12.57;9.27;;;21.80;99.90;;;-147.18;100.00;67318.16;5082835;28;20044;-78
2022/09/07 09:01:49;;;;;;;15.68;9.90;;;21.80;99.90;;;-147.18;100.00;67318.16;5071822;28;20040;-78
2022/09/07 09:05:24;;;;;;;16.10;9.80;;;21.80;99.90;;;-147.18;100.00;67318.16;5086805;28;20127;-79
2022/09/07 09:09:05;;;;;;;13.52;8.63;;;21.80;99.90;;;-147.18;100.00;67318.16;5082702;28;20212;-78
2022/09/07 09:12:47;;;;;;;10.63;7.47;;;21.90;99.90;;;-147.18;100.00;67318.16;5105254;28;20411;-79
2022/09/07 09:16:20;;;;;;;8.07;6.07;;;21.90;99.90;;;-147.18;100.00;67318.16;5072070;28;20267;-78
2022/09/07 09:20:06;;;;;;;12.52;7.57;;;21.90;99.90;;;-147.18;100.00;67318.16;5082139;28;20470;-79
2022/09/07 09:23:37;;;;;;;11.88;7.05;;;22.00;99.90;;;-147.18;100.00;67318.16;5087672;28;20036;-78
2022/09/07 09:27:06;;;;;;;12.10;8.23;;;22.00;99.90;;;-147.18;100.00;67318.16;5080133;28;20044;-78
2022/09/07 09:30:32;;;;;;;10.07;7.60;;;22.10;99.90;;;-147.18;100.00;67318.16;5075697;28;20127;-79
2022/09/07 09:34:17;;;;;;;14.90;8.70;;;22.10;99.90;;;-147.18;100.00;67318.16;5081661;28;20153;-78
2022/09/07 09:37:45;;;;;;;10.93;8.00;;;22.20;99.90;;;-147.18;100.00;67318.16;5076068;28;20040;-79
2022/09/07 09:41:24;;;;;;;11.25;7.43;;;22.30;99.90;;;-147.18;100.00;67318.16;5072876;28;20055;-80
2022/09/07 09:44:52;;;;;;;11.48;7.78;;;22.40;99.90;;;-147.18;100.00;67318.16;5073392;28;20044;-84
2022/09/07 09:48:30;;;;;;;10.27;5.82;;;22.30;99.90;;;-147.18;100.00;67318.16;5085424;28;20096;-84
2022/09/07 09:52:02;;;;;;;5.70;4.00;;;22.40;99.90;;;-147.18;100.00;67318.16;5075738;28;20040;-84
2022/09/07 09:55:31;;;;;;;7.68;4.00;;;22.40;99.90;;;-147.18;100.00;67318.16;5064092;28;20048;-84
2022/09/07 09:59:10;;;;;;;6.38;3.28;;;22.50;99.90;;;-147.18;100.00;67318.16;5073416;28;20052;-84
2022/09/07 10:02:36;;;;;;;6.40;2.72;;;22.50;99.90;;;-147.18;100.00;67318.16;5056833;28;20048;-85
2022/09/07 10:06:20;;;;;;;5.43;2.25;;;22.40;99.90;;;-147.18;100.00;67318.16;5059371;28;20039;-84
2022/09/07 10:09:55;;;;;;;4.43;2.10;;;22.40;99.90;;;-147.18;100.00;67318.16;5090055;28;20040;-84
2022/09/07 10:13:27;;;;;;;3.85;2.30;;;22.50;99.90;;;-147.18;100.00;67318.16;5089910;28;20035;-84
2022/09/07 10:16:54;;;;;;;5.20;2.47;;;22.40;99.90;;;-147.18;100.00;67318.16;5066691;28;20502;-84
2022/09/07 10:20:30;;;;;;;5.13;1.92;;;22.50;99.90;;;-147.18;100.00;67318.16;5069306;28;20040;-84
2022/09/07 10:23:59;;;;;;;4.03;2.20;;;22.50;99.90;;;-147.18;100.00;67318.16;5062613;28;20048;-84
2022/09/07 10:27:29;;;;;;;4.55;2.30;;;22.50;99.90;;;-147.18;100.00;67318.16;5061068;28;20120;-84
2022/09/07 10:31:06;;;;;;;4.30;2.15;;;22.50;99.90;;;-147.18;100.00;67318.16;5093761;28;20579;-84
2022/09/07 10:34:47;;;;;;;5.20;2.10;;;22.60;99.90;;;-147.18;100.00;67318.16;5062303;28;20040;-85
2022/09/07 10:38:27;;;;;;;5.70;1.83;;;22.60;99.90;;;-147.18;100.00;67318.16;5082752;28;20032;-84
2022/09/07 10:42:01;;;;;;;4.68;2.30;;;22.60;99.90;;;-147.18;100.00;67318.16;5091234;28;20040;-85
2022/09/07 10:45:44;;;;;;;5.32;2.40;;;22.60;99.90;;;-147.18;100.00;67318.16;5080086;28;20044;-85
2022/09/07 10:49:20;;;;;;;5.10;2.42;;;22.70;99.90;;;-147.18;100.00;67318.16;5092715;28;20044;-84
2022/09/07 10:53:11;;;;;;;5.80;3.17;;;22.70;99.90;;;-147.18;100.00;67318.16;5093998;28;20043;-84
2022/09/07 10:56:47;;;;;;;6.65;3.50;;;22.70;99.90;;;-147.18;100.00;67318.16;5064904;28;20041;-84
2022/09/07 11:00:30;;;;;;;6.47;2.70;;;22.70;99.90;;;-147.18;100.00;67318.16;5093691;28;20415;-84
2022/09/07 11:04:32;;;;;;;6.30;2.55;;;22.70;99.90;;;-147.18;100.00;67318.16;5074262;28;20120;-84
2022/09/07 11:08:07;;;;;;;;;;;22.70;99.90;;;-147.18;100.00;67318.16;5065067;28;20125;-84
2022/09/07 11:11:41;;;;;;;5.65;2.67;;;22.70;99.90;;;-147.18;100.00;67318.16;5082876;28;19919;-84
2022/09/07 11:15:16;;;;;;;6.75;2.97;;;22.70;99.90;;;-147.18;100.00;67318.16;5081976;28;20044;-84
2022/09/07 11:18:50;;;;;;;6.55;3.33;;;22.80;99.90;;;-147.18;100.00;67318.16;5069161;28;20044;-84
2022/09/07 11:22:26;;;;;;;5.97;2.97;;;22.80;99.90;;;-147.18;100.00;67318.16;5072255;28;20386;-84
2022/09/07 11:26:01;;;;;;;6.13;2.80;;;22.80;99.90;;;-147.18;100.00;67318.16;5061837;28;20032;-84
2022/09/07 11:29:35;;;;;;;4.82;2.92;;;22.80;99.90;;;-147.18;100.00;67318.16;5082322;28;20475;-84
2022/09/07 11:33:13;;;;;;;5.63;3.30;;;22.90;99.90;;;-147.18;100.00;67318.16;5063745;28;20036;-84
2022/09/07 11:36:50;;;;;;;6.93;3.67;;;22.90;99.90;;;-147.18;100.00;67318.16;5061262;28;20043;-84
2022/09/07 11:40:25;;;;;;;7.70;4.10;;;22.90;99.90;;;-147.18;100.00;67318.16;5086735;28;20115;-84
2022/09/07 11:43:58;;;;;;;6.45;2.97;;;23.00;99.90;;;-147.18;100.00;67318.16;5092331;28;20047;-84
2022/09/07 11:47:34;;;;;;;6.78;2.88;;;23.00;99.90;;;-147.18;100.00;67318.16;5078849;28;20093;-84
2022/09/07 11:51:02;;;;;;;5.95;2.35;;;23.00;99.90;;;-147.18;100.00;67318.16;5080324;28;20210;-84
2022/09/07 11:54:41;;;;;;;5.15;2.65;;;23.00;99.90;;;-147.18;100.00;67318.16;5079459;28;20048;-84
2022/09/07 11:58:35;;;;;;;5.90;3.35;;;23.00;99.90;;;-147.18;100.00;67318.16;5091914;28;20111;-84
2022/09/07 12:02:24;;;;;;;6.90;2.75;;;23.00;99.90;;;-147.18;100.00;67318.16;5079918;28;20046;-84
2022/09/07 12:06:20;;;;;;;4.82;2.50;;;23.00;99.90;;;-147.18;100.00;67318.16;5084558;28;20128;-84
2022/09/07 12:10:07;;;;;;;5.75;2.58;;;23.00;99.90;;;-147.18;100.00;67318.16;5080499;28;20033;-82
2022/09/07 12:14:01;;;;;;;9.05;3.17;;;23.10;99.90;;;-147.18;100.00;67318.16;5071640;28;20163;-85
2022/09/07 12:17:43;;;;;;;6.75;3.13;;;23.20;99.90;;;-147.18;100.00;67318.16;5083307;28;20047;-85
2022/09/07 12:21:26;;;;;;;6.38;3.30;;;23.20;99.90;;;-147.18;100.00;67318.16;5088588;28;20416;-84
2022/09/07 12:24:53;;;;;;;5.78;3.00;;;23.20;99.90;;;-147.18;100.00;67318.16;5085721;28;20051;-85
2022/09/07 12:28:56;;;;;;;6.65;3.00;;;23.20;99.90;;;-147.18;100.00;67318.16;5088237;28;20135;-84
2022/09/07 12:33:03;;;;;;;6.88;3.00;;;23.30;99.90;;;-147.18;100.00;67318.16;5087020;28;20072;-84
2022/09/07 12:36:42;;;;;;;7.00;3.17;;;23.30;99.90;;;-147.18;100.00;67318.16;5088808;28;20127;-85
2022/09/07 12:40:41;;;;;;;5.78;2.85;;;23.30;99.90;;;-147.18;100.00;67318.16;5085974;28;20048;-84
2022/09/07 12:45:09;;;;;;;8.65;3.60;;;23.30;99.90;;;-147.18;100.00;67318.16;5079105;28;20143;-85
2022/09/07 12:48:45;;;;;;;7.05;2.88;;;23.40;99.90;;;-147.18;100.00;67318.16;5084110;28;20067;-84
2022/09/07 12:52:28;;;;;;;5.28;2.72;;;23.40;99.90;;;-147.18;100.00;67318.16;5089199;28;20043;-85
2022/09/07 12:56:10;;;;;;;7.45;2.63;;;23.40;99.90;;;-147.18;100.00;67318.16;5084262;28;20040;-84
2022/09/07 12:59:54;;;;;;;8.70;2.80;;;23.40;99.90;;;-147.18;100.00;67318.16;5062439;28;20048;-84
2022/09/07 13:03:44;;;;;;;4.47;2.50;;;23.40;99.90;;;-147.18;100.00;67318.16;5073848;28;20039;-84
2022/09/07 13:07:35;;;;;;;7.00;2.88;;;23.40;99.90;;;-147.18;100.00;67318.16;5083222;28;20047;-86
2022/09/07 13:11:23;;;;;;;6.25;2.70;;;23.40;99.90;;;-147.18;100.00;67318.16;5085864;28;20040;-82
2022/09/07 13:14:55;;;;;;;6.57;3.28;;;23.40;99.90;;;-147.18;100.00;67318.16;5081530;28;20052;-82
2022/09/07 13:18:43;;;;;;;6.10;3.10;;;23.40;99.90;;;-147.18;100.00;67318.16;5079581;28;20743;-81
2022/09/07 13:22:53;;;;;;;6.53;3.13;;;23.40;99.90;;;-147.18;100.00;67318.16;5090218;28;20108;-81
2022/09/07 13:26:52;;;;;;;8.65;2.90;;;23.40;99.90;;;-147.18;100.00;67318.16;5083098;28;20046;-82
2022/09/07 13:30:30;;;;;;;5.20;2.53;;;23.40;99.90;;;-147.18;100.00;67318.16;5088286;28;20105;-82
2022/09/07 13:34:54;;;;;;;6.28;2.70;;;23.50;99.90;;;-147.18;100.00;67318.16;5083702;28;20040;-82
2022/09/07 13:38:22;;;;;;;5.18;1.92;;;23.50;99.90;;;-147.18;100.00;67318.16;5051374;28;20067;-82
2022/09/07 13:41:51;;;;;;;5.88;2.92;;;23.60;99.90;;;-147.18;100.00;67318.16;5083662;28;20051;-82
2022/09/07 13:45:44;;;;;;;5.93;2.78;;;23.60;99.90;;;-147.18;100.00;67318.16;5086092;28;20032;-82
2022/09/07 13:49:24;;;;;;;7.22;2.67;;;23.60;99.90;;;-147.18;100.00;67318.16;5085120;28;20585;-82
2022/09/07 13:53:08;;;;;;;4.80;2.50;;;23.70;99.90;;;-147.18;100.00;67318.16;5085674;28;20055;-80
2022/09/07 13:56:44;;;;;;;7.90;2.55;;;23.60;99.90;;;-147.18;100.00;67318.16;5079611;28;20377;-81
2022/09/07 14:00:16;;;;;;;10.63;3.00;;;23.70;99.90;;;-147.18;100.00;67318.16;5086303;28;20028;-80
2022/09/07 14:03:49;;;;;;;5.45;2.70;;;23.70;99.90;;;-147.18;100.00;67318.16;5087855;28;20042;-81
2022/09/07 14:07:29;;;;;;;4.53;2.10;;;23.70;99.90;;;-147.18;100.00;67318.16;5084851;28;20047;-83
2022/09/07 14:11:16;;;;;;;6.28;2.50;;;23.60;99.90;;;-147.18;100.00;67318.16;5086321;28;20040;-81
2022/09/07 14:14:41;;;;;;;6.45;2.53;;;23.60;99.90;;;-147.18;100.00;67318.16;5084112;28;20412;-81
2022/09/07 14:18:12;;;;;;;7.25;2.83;;;23.60;99.90;;;-147.18;100.00;67318.16;5085017;28;20800;-81
2022/09/07 14:21:40;;;;;;;6.40;2.55;;;23.60;99.90;;;-147.18;100.00;67318.16;5081774;28;20090;-80
2022/09/07 14:25:21;;;;;;;4.13;1.90;;;23.60;99.90;;;-147.18;100.00;67318.16;5084372;28;20087;-79
2022/09/07 14:28:49;;;;;;;6.22;2.22;;;23.60;99.90;;;-147.18;100.00;67318.16;5085359;28;20669;-81